Stanton, Wisconsin
Current Conditions -  °F | °C
As of 8:55 PM on Tuesday 25 Nov 2014 (Local Time) from KRNH Reporting Station
Overcast Overcast  
Wind Chill: 18°   Ceiling: 6000
Heat Index: 24°   Visibility: 10mi
Dew Point: 17°   Wind: 5mph
Humidity: 76%   Direction: 150°SSE
Pressure: 30.04"   Gusts: NA
Location:  45.1804°N, 92.551°W
Report Text: KRNH 260255Z AUTO 15004KT 10SM OVC060 M05/M08 A3004 RMK AO2 T10471084
Loading
Personal Weather Stations






























Interactive Weather Map New forecast layout! Learn more

10-Day Weather Forecast

Advertisements
Track Severe Weather on mobile